LJLJLJPZ

Guest
Details From LJLJ - LJUBLJANA
To LJPZ - PORTOROZ
Flight Number -
Tags decoded
Created
Modified
Stats Distance 71 nm / 132 km
Max Altitude 0 ft / 0 m
Waypoints 5
Social Downloads 3
Likes 0
Share VATSIM

Download

Looking for another format? Having issues loading an existing format? Contact us
Advertisement - Login to hide

Notes

Requested: LJLJ MG LASLO ILB LJPZ

Route

LJLJ MG LASLO ILB LJPZ

ID Type Via Altitude Latitude Longitude Leg Dist Tot Dist Heading (true) Name
O LJLJ APT - 0 ft / 0 m 46.22368˚ 14.45761˚ - 0 nm - LJUBLJANA
MG NDB - 0 ft / 0 m 46.17323˚ 14.55594˚ 5 nm 5 nm 127° / 127° LJUBLJANA NDB
LASLO FIX - 0 ft / 0 m 45.88854˚ 14.54770˚ 17 nm 22 nm 181° / 181° -
ILB NDB - 0 ft / 0 m 45.56447˚ 14.17197˚ 25 nm 47 nm 219° / 219° BISTRICA NDB
O LJPZ APT - 0 ft / 0 m 45.47244˚ 13.61568˚ 24 nm 71 nm 257° / 257° PORTOROZ

Altitude Profile

Advertisement - Login to hide

LJLJ

Details ICAO LJLJ (LJU)
Name LJUBLJANA
Region Slovenia
Timezone Europe/Ljubljana (UTC+2.0)
Stats Elevation 1,273 ft / 388 m (AMSL)
Location 46.223685° 14.457608°
Runways 1
Magnetic Variation 3.712° E

METAR

LJLJ 250530Z VRB01KT 9999 FEW020 16/14 Q1017 NOSIG

Decode

TAF

TAF LJLJ 250200Z 2503/2603 28003KT 9999 FEW050 SCT130 TEMPO 2503/2521 SHRA SCT035TCU BKN050 BECMG 2508/2510 12005KT PROB40 TEMPO 2509/2518 VRB10G20KT 5000 TSRA SCT030CB BKN050 BECMG 2519/2522 29003KT

Decode

Departure Runways

ID Width Length Bearing (true) Bearing (mag) Surface Threshold Offset Overrun Length
13 148 ft / 45 m 10,811 ft / 3,295 m 126.47° 122.76° Asphalt 0 ft / 0 m 0 ft / 0 m
31 148 ft / 45 m 10,811 ft / 3,295 m 306.49° 302.78° Asphalt 0 ft / 0 m 0 ft / 0 m

LJPZ

Details ICAO LJPZ (POW)
Name PORTOROZ
Region Slovenia
Timezone Europe/Ljubljana (UTC+2.0)
Stats Elevation 7 ft / 2 m (AMSL)
Location 45.472445° 13.615681°
Runways 1
Magnetic Variation 3.493° E

METAR

LJPZ 250530Z 12005KT CAVOK 18/16 Q1014

Decode

TAF

Not found

Destination Runways

ID Width Length Bearing (true) Bearing (mag) Surface Threshold Offset Overrun Length
15 98 ft / 30 m 3,939 ft / 1,201 m 151.28° 147.79° Asphalt 0 ft / 0 m 0 ft / 0 m
33 98 ft / 30 m 3,939 ft / 1,201 m 331.29° 327.80° Asphalt 751 ft / 229 m 0 ft / 0 m

Popular Alternatives